Time;durP1;ratioP1;P1;durP2;ratioP2;P2;SDS_P1;SDS_P2;PMS_P1;PMS_P2;Temp;Humidity;BMP_temperature;BMP_pressure;BME280_temperature;BME280_humidity;BME280_pressure;Samples;Min_cycle;Max_cycle;Signal;HPM_P1;HPM_P2
2021/07/10 00:01:30;;;;;;;9.40;7.13;;;20.00;99.90;;;;;;4138384;28;20132;-71
2021/07/10 00:03:31;;;;;;;10.20;7.63;;;20.00;99.90;;;;;;4142783;28;20042;-71
2021/07/10 00:05:33;;;;;;;8.77;7.78;;;20.00;99.90;;;;;;4139670;28;20378;-71
2021/07/10 00:07:33;;;;;;;11.25;8.43;;;20.00;99.90;;;;;;4137055;28;20034;-71
2021/07/10 00:09:34;;;;;;;11.15;8.02;;;20.00;99.90;;;;;;4135136;28;20039;-71
2021/07/10 00:11:34;;;;;;;9.75;7.90;;;20.00;99.90;;;;;;4138904;28;20577;-71
2021/07/10 00:13:35;;;;;;;9.18;7.88;;;20.00;99.90;;;;;;4141019;28;20790;-71
2021/07/10 00:15:36;;;;;;;10.98;8.60;;;19.90;99.90;;;;;;4135760;28;20093;-71
2021/07/10 00:17:37;;;;;;;11.88;9.02;;;19.90;99.90;;;;;;4143626;28;20481;-71
2021/07/10 00:19:38;;;;;;;10.60;9.00;;;19.90;99.90;;;;;;4134383;28;20034;-71
2021/07/10 00:21:38;;;;;;;11.50;9.98;;;19.90;99.90;;;;;;4135098;28;20038;-71
2021/07/10 00:23:39;;;;;;;12.50;9.63;;;19.80;99.90;;;;;;4141215;28;20096;-72
2021/07/10 00:25:40;;;;;;;11.05;8.90;;;19.80;99.90;;;;;;4134622;28;20038;-71
2021/07/10 00:27:41;;;;;;;11.38;8.75;;;19.80;99.90;;;;;;4137115;28;20031;-71
2021/07/10 00:29:42;;;;;;;11.23;8.88;;;19.80;99.90;;;;;;4139917;28;20128;-71
2021/07/10 00:31:42;;;;;;;10.57;8.45;;;19.80;99.90;;;;;;4138244;28;20108;-71
2021/07/10 00:33:44;;;;;;;11.90;9.43;;;19.70;99.90;;;;;;4132844;28;20030;-71
2021/07/10 00:35:45;;;;;;;11.63;9.00;;;19.70;99.90;;;;;;4137913;28;20032;-71
2021/07/10 00:37:46;;;;;;;10.85;9.20;;;19.70;99.90;;;;;;4132020;28;20050;-71
2021/07/10 00:39:46;;;;;;;15.25;8.95;;;19.70;99.90;;;;;;4132766;28;20579;-71
2021/07/10 00:41:47;;;;;;;11.38;8.40;;;19.70;99.90;;;;;;4133235;28;20100;-71
2021/07/10 00:43:49;;;;;;;11.02;8.82;;;19.70;99.90;;;;;;4133854;28;20058;-71
2021/07/10 00:45:50;;;;;;;12.00;9.02;;;19.60;99.90;;;;;;4136332;28;20109;-71
2021/07/10 00:47:50;;;;;;;11.93;9.32;;;19.60;99.90;;;;;;4140376;28;20034;-71
2021/07/10 00:49:51;;;;;;;12.77;9.15;;;19.60;99.90;;;;;;4133526;28;20088;-71
2021/07/10 00:51:51;;;;;;;10.90;8.60;;;19.60;99.90;;;;;;4139025;28;20034;-71
2021/07/10 00:53:52;;;;;;;10.00;8.38;;;19.50;99.90;;;;;;4137374;28;20038;-71
2021/07/10 00:55:53;;;;;;;13.32;8.80;;;19.50;99.90;;;;;;4140129;28;20045;-71
2021/07/10 00:57:55;;;;;;;11.07;8.80;;;19.50;99.90;;;;;;4118627;28;20028;-71
2021/07/10 00:59:55;;;;;;;9.80;8.35;;;19.40;99.90;;;;;;4132488;28;20043;-71
2021/07/10 01:01:56;;;;;;;11.32;8.25;;;19.40;99.90;;;;;;4137423;28;20038;-71
2021/07/10 01:03:57;;;;;;;10.40;8.57;;;19.40;99.90;;;;;;4138316;28;20038;-71
2021/07/10 01:05:58;;;;;;;13.38;9.43;;;19.40;99.90;;;;;;4133567;28;20037;-71
2021/07/10 01:07:58;;;;;;;10.48;8.07;;;19.40;99.90;;;;;;4135935;28;20046;-71
2021/07/10 01:09:59;;;;;;;10.68;8.40;;;19.40;99.90;;;;;;4137695;28;20489;-71
2021/07/10 01:12:00;;;;;;;10.35;7.75;;;19.30;99.90;;;;;;4140346;28;20038;-71
2021/07/10 01:14:01;;;;;;;11.23;8.88;;;19.30;99.90;;;;;;4131480;28;20043;-71
2021/07/10 01:16:04;;;;;;;11.18;8.90;;;19.30;99.90;;;;;;4136671;28;20219;-71
2021/07/10 01:18:05;;;;;;;;;;;19.30;99.90;;;;;;4139226;28;20031;-71
2021/07/10 01:20:08;;;;;;;13.05;8.45;;;19.30;99.90;;;;;;4141450;28;19917;-71
2021/07/10 01:22:09;;;;;;;9.68;8.10;;;19.30;99.90;;;;;;4137928;28;20053;-71
2021/07/10 01:24:10;;;;;;;9.07;7.38;;;19.30;99.90;;;;;;4136832;28;20040;-71
2021/07/10 01:26:10;;;;;;;11.35;8.45;;;19.20;99.90;;;;;;4137453;28;20026;-71
2021/07/10 01:28:13;;;;;;;10.75;8.60;;;19.20;99.90;;;;;;4133879;28;20034;-71
2021/07/10 01:30:15;;;;;;;;;;;19.20;99.90;;;;;;4141272;28;20030;-71
2021/07/10 01:32:17;;;;;;;10.27;7.45;;;19.20;99.90;;;;;;4137978;28;19937;-71
2021/07/10 01:34:17;;;;;;;9.80;7.73;;;19.20;99.90;;;;;;4136746;28;20581;-71
2021/07/10 01:36:18;;;;;;;10.25;8.15;;;19.10;99.90;;;;;;4142355;28;20280;-72
2021/07/10 01:38:19;;;;;;;10.20;7.95;;;19.10;99.90;;;;;;4142319;28;20040;-71
2021/07/10 01:40:22;;;;;;;11.75;7.55;;;19.10;99.90;;;;;;4139163;28;20037;-71
2021/07/10 01:42:22;;;;;;;11.13;8.05;;;19.10;99.90;;;;;;4137767;28;20057;-71
2021/07/10 01:44:23;;;;;;;10.48;7.82;;;19.10;99.90;;;;;;4135617;28;20174;-71
2021/07/10 01:46:24;;;;;;;12.15;8.10;;;19.10;99.90;;;;;;4139781;28;20041;-71
2021/07/10 01:48:24;;;;;;;13.23;8.15;;;19.10;99.90;;;;;;4135236;28;20101;-72
2021/07/10 01:50:26;;;;;;;13.57;8.15;;;19.10;99.90;;;;;;4131176;28;20098;-71
2021/07/10 01:52:26;;;;;;;11.25;7.75;;;19.10;99.90;;;;;;4137634;28;20050;-71
2021/07/10 01:54:27;;;;;;;11.70;7.75;;;19.10;99.90;;;;;;4137747;28;20041;-71
2021/07/10 01:56:28;;;;;;;10.65;8.25;;;19.00;99.90;;;;;;4118518;28;20022;-71
2021/07/10 01:58:28;;;;;;;10.57;7.82;;;19.00;99.90;;;;;;4127402;28;20113;-71
2021/07/10 02:00:47;;;;;;;10.52;7.53;;;19.00;99.90;;;;;;4128514;28;21255;-71
2021/07/10 02:02:48;;;;;;;12.45;8.20;;;19.00;99.90;;;;;;4136535;28;20045;-71
2021/07/10 02:04:51;;;;;;;10.63;7.80;;;19.00;99.90;;;;;;4134440;28;20752;-71
2021/07/10 02:06:52;;;;;;;10.73;7.82;;;18.90;99.90;;;;;;4135947;28;20485;-71
2021/07/10 02:08:54;;;;;;;12.38;8.07;;;18.90;99.90;;;;;;4139304;28;20049;-71
2021/07/10 02:10:54;;;;;;;8.90;7.20;;;18.90;99.90;;;;;;4131965;28;20045;-71
2021/07/10 02:12:59;;;;;;;9.45;7.43;;;18.90;99.90;;;;;;4132237;28;20590;-71
2021/07/10 02:14:59;;;;;;;10.35;8.15;;;18.90;99.90;;;;;;4132796;28;20069;-71
2021/07/10 02:17:00;;;;;;;10.38;7.90;;;18.90;99.90;;;;;;4136727;28;20038;-71
2021/07/10 02:19:01;;;;;;;8.15;7.07;;;18.80;99.90;;;;;;4134490;28;20053;-71
2021/07/10 02:21:02;;;;;;;9.93;7.55;;;18.90;99.90;;;;;;4135371;28;20048;-71
2021/07/10 02:23:04;;;;;;;9.90;7.20;;;18.90;99.90;;;;;;4136695;28;20080;-71
2021/07/10 02:25:10;;;;;;;9.85;7.78;;;18.80;99.90;;;;;;4136002;28;20034;-71
2021/07/10 02:27:11;;;;;;;9.95;7.45;;;18.80;99.90;;;;;;4133468;28;20224;-71
2021/07/10 02:29:12;;;;;;;11.70;7.28;;;18.80;99.90;;;;;;4137398;28;20506;-71
2021/07/10 02:31:13;;;;;;;9.25;7.30;;;18.80;99.90;;;;;;4136323;28;20138;-71
2021/07/10 02:33:15;;;;;;;9.80;7.65;;;18.80;99.90;;;;;;4140745;28;20099;-71
2021/07/10 02:35:16;;;;;;;12.50;7.30;;;18.80;99.90;;;;;;4131958;28;20050;-72
2021/07/10 02:37:17;;;;;;;10.13;7.65;;;18.70;99.90;;;;;;4131394;28;20394;-71
2021/07/10 02:39:18;;;;;;;16.13;7.15;;;18.80;99.90;;;;;;4135927;28;20034;-71
2021/07/10 02:41:18;;;;;;;8.27;7.00;;;18.70;99.90;;;;;;4136194;28;20065;-71
2021/07/10 02:43:19;;;;;;;10.25;7.13;;;18.80;99.90;;;;;;4135776;28;20045;-71
2021/07/10 02:45:20;;;;;;;9.40;7.80;;;18.70;99.90;;;;;;4113946;28;20400;-71
2021/07/10 02:47:21;;;;;;;10.43;8.00;;;18.70;99.90;;;;;;4130936;28;20080;-72
2021/07/10 02:49:22;;;;;;;10.90;7.45;;;18.70;99.90;;;;;;4131473;28;20030;-71
2021/07/10 02:51:22;;;;;;;10.48;6.70;;;18.70;99.90;;;;;;4135815;28;20586;-71
2021/07/10 02:53:23;;;;;;;8.63;6.35;;;18.70;99.90;;;;;;4138834;28;20096;-71
2021/07/10 02:55:24;;;;;;;16.13;7.88;;;18.70;99.90;;;;;;4140868;28;20054;-71
2021/07/10 02:57:25;;;;;;;10.35;7.47;;;18.70;99.90;;;;;;4121416;28;20038;-71
2021/07/10 02:59:25;;;;;;;10.10;6.97;;;18.70;99.90;;;;;;4130508;28;20087;-71
2021/07/10 03:01:26;;;;;;;8.80;6.95;;;18.60;99.90;;;;;;4131960;28;20042;-71
2021/07/10 03:03:27;;;;;;;11.32;6.72;;;18.70;99.90;;;;;;4139786;28;20048;-71
2021/07/10 03:05:27;;;;;;;8.95;6.47;;;18.60;99.90;;;;;;4138627;28;20052;-71
2021/07/10 03:07:28;;;;;;;7.68;5.95;;;18.60;99.90;;;;;;4135862;28;20498;-71
2021/07/10 03:09:28;;;;;;;7.93;6.15;;;18.60;99.90;;;;;;4137116;28;20042;-71
2021/07/10 03:11:29;;;;;;;12.48;6.70;;;18.60;99.90;;;;;;4134508;28;21343;-71
2021/07/10 03:13:30;;;;;;;13.77;6.63;;;18.60;99.90;;;;;;4132140;28;20042;-71
2021/07/10 03:15:30;;;;;;;9.40;7.03;;;18.60;99.90;;;;;;4137587;28;20148;-71
2021/07/10 03:17:31;;;;;;;8.85;6.82;;;18.60;99.90;;;;;;4132457;28;20042;-71
2021/07/10 03:19:31;;;;;;;13.27;7.45;;;18.50;99.90;;;;;;4136126;28;20149;-71
2021/07/10 03:21:32;;;;;;;12.02;6.95;;;18.60;99.90;;;;;;4134526;28;22227;-71
2021/07/10 03:23:32;;;;;;;8.90;6.78;;;18.50;99.90;;;;;;4138974;28;20057;-71
2021/07/10 03:25:33;;;;;;;12.73;7.30;;;18.50;99.90;;;;;;4140481;28;20046;-71
2021/07/10 03:27:34;;;;;;;11.07;7.18;;;18.50;99.90;;;;;;4140947;28;20490;-71
2021/07/10 03:29:35;;;;;;;9.93;7.30;;;18.40;99.90;;;;;;4130163;28;20564;-71
2021/07/10 03:31:35;;;;;;;10.85;7.25;;;18.40;99.90;;;;;;4137214;28;20099;-71
2021/07/10 03:33:38;;;;;;;9.93;6.75;;;18.40;99.90;;;;;;4130309;28;20037;-71
2021/07/10 03:35:38;;;;;;;9.35;7.30;;;18.40;99.90;;;;;;4131475;28;20043;-71
2021/07/10 03:37:39;;;;;;;9.85;8.00;;;18.50;99.90;;;;;;4135567;28;20038;-71
2021/07/10 03:39:40;;;;;;;10.52;7.63;;;18.40;99.90;;;;;;4137559;28;20034;-71
2021/07/10 03:41:40;;;;;;;10.73;7.55;;;18.40;99.90;;;;;;4139291;28;20052;-71
2021/07/10 03:43:41;;;;;;;11.82;7.20;;;18.40;99.90;;;;;;4136902;28;20109;-72
2021/07/10 03:45:42;;;;;;;9.23;7.03;;;18.40;99.90;;;;;;4132228;28;20046;-71
2021/07/10 03:47:43;;;;;;;10.80;7.22;;;18.40;99.90;;;;;;4135979;28;20060;-71
2021/07/10 03:49:43;;;;;;;10.30;6.60;;;18.40;99.90;;;;;;4135403;28;20862;-71
2021/07/10 03:51:44;;;;;;;15.23;6.93;;;18.40;99.90;;;;;;4134989;28;20511;-71
2021/07/10 03:53:45;;;;;;;12.57;7.07;;;18.40;99.90;;;;;;4130378;28;20634;-71
2021/07/10 03:55:45;;;;;;;14.05;6.68;;;18.40;99.90;;;;;;4134067;28;20524;-72
2021/07/10 03:57:46;;;;;;;9.02;7.40;;;18.30;99.90;;;;;;4140149;28;20765;-71
2021/07/10 03:59:47;;;;;;;11.00;7.60;;;18.30;99.90;;;;;;4135887;28;20057;-71
2021/07/10 04:01:47;;;;;;;10.60;7.95;;;18.30;99.90;;;;;;4139610;28;20026;-71
2021/07/10 04:03:48;;;;;;;10.10;7.55;;;18.30;99.90;;;;;;4132771;28;20062;-71
2021/07/10 04:05:49;;;;;;;10.15;7.80;;;18.30;99.90;;;;;;4131982;28;20038;-71
2021/07/10 04:07:50;;;;;;;11.20;8.48;;;18.30;99.90;;;;;;4133446;28;20042;-71
2021/07/10 04:09:50;;;;;;;13.80;9.32;;;18.30;99.90;;;;;;4137552;28;20037;-71
2021/07/10 04:11:51;;;;;;;11.75;8.20;;;18.30;99.90;;;;;;4133208;28;20034;-71
2021/07/10 04:13:52;;;;;;;13.85;9.13;;;18.30;99.90;;;;;;4132352;28;20089;-71
2021/07/10 04:15:52;;;;;;;13.07;9.38;;;18.30;99.90;;;;;;4133166;28;20475;-71
2021/07/10 04:17:53;;;;;;;10.23;7.63;;;18.30;99.90;;;;;;4135355;28;20045;-71
2021/07/10 04:19:54;;;;;;;10.00;6.75;;;18.30;99.90;;;;;;4132552;28;20038;-71
2021/07/10 04:21:55;;;;;;;12.32;7.50;;;18.30;99.90;;;;;;4135917;28;20061;-72
2021/07/10 04:23:55;;;;;;;8.95;7.72;;;18.30;99.90;;;;;;4136861;28;20506;-71
2021/07/10 04:25:56;;;;;;;12.27;8.77;;;18.30;99.90;;;;;;4138427;28;20030;-71
2021/07/10 04:27:57;;;;;;;15.98;8.90;;;18.40;99.90;;;;;;4138623;28;20581;-71
2021/07/10 04:29:58;;;;;;;13.85;9.43;;;18.40;99.90;;;;;;4141740;28;20530;-71
2021/07/10 04:31:59;;;;;;;14.65;9.63;;;18.30;99.90;;;;;;4137502;28;20069;-71
2021/07/10 04:33:59;;;;;;;13.65;9.23;;;18.30;99.90;;;;;;4135758;28;20030;-71
2021/07/10 04:36:00;;;;;;;12.98;9.00;;;18.30;99.90;;;;;;4131240;28;20048;-71
2021/07/10 04:38:01;;;;;;;12.65;8.93;;;18.30;99.90;;;;;;4137812;28;20391;-71
2021/07/10 04:40:03;;;;;;;12.40;9.38;;;18.40;99.90;;;;;;4138843;28;20030;-71
2021/07/10 04:42:05;;;;;;;;;;;18.40;99.90;;;;;;4132363;28;20031;-71
2021/07/10 04:44:05;;;;;;;13.00;8.27;;;18.40;99.90;;;;;;4130506;28;20521;-71
2021/07/10 04:46:06;;;;;;;12.68;8.38;;;18.40;99.90;;;;;;4138674;28;20049;-71
2021/07/10 04:48:07;;;;;;;13.60;9.07;;;18.40;99.90;;;;;;4133187;28;20425;-71
2021/07/10 04:50:09;;;;;;;12.98;9.02;;;18.50;99.90;;;;;;4138885;28;20046;-71
2021/07/10 04:52:10;;;;;;;11.52;8.43;;;18.50;99.90;;;;;;4135345;28;20092;-71
2021/07/10 04:54:11;;;;;;;13.98;9.73;;;18.50;99.90;;;;;;4137640;28;20038;-71
2021/07/10 04:56:11;;;;;;;14.13;8.82;;;18.50;99.90;;;;;;4141366;28;20108;-71
2021/07/10 04:58:13;;;;;;;10.45;8.02;;;18.60;99.90;;;;;;4134140;28;20065;-71
2021/07/10 05:00:15;;;;;;;11.60;8.35;;;18.60;99.90;;;;;;4138109;28;20030;-71
2021/07/10 05:02:16;;;;;;;11.15;8.38;;;18.60;99.90;;;;;;4137865;28;20038;-71
2021/07/10 05:04:17;;;;;;;11.68;8.93;;;18.70;99.90;;;;;;4134198;28;20034;-71
2021/07/10 05:06:17;;;;;;;11.30;8.35;;;18.70;99.90;;;;;;4142284;28;20097;-71
2021/07/10 05:08:18;;;;;;;10.10;7.75;;;18.70;99.90;;;;;;4135031;28;20091;-71
2021/07/10 05:10:19;;;;;;;14.40;9.50;;;18.70;99.90;;;;;;4137938;28;20112;-71
2021/07/10 05:12:20;;;;;;;12.52;8.90;;;18.70;99.90;;;;;;4138446;28;20022;-72
2021/07/10 05:14:21;;;;;;;12.40;8.43;;;18.70;99.90;;;;;;4135697;28;20053;-71
2021/07/10 05:16:22;;;;;;;11.18;8.38;;;18.80;99.90;;;;;;4141029;28;20046;-71
2021/07/10 05:18:22;;;;;;;11.80;8.80;;;18.80;99.90;;;;;;4127676;28;20038;-71
2021/07/10 05:20:23;;;;;;;12.23;8.57;;;18.70;99.90;;;;;;4136835;28;20109;-71
2021/07/10 05:22:23;;;;;;;15.77;9.48;;;18.80;99.90;;;;;;4129966;28;20034;-71
2021/07/10 05:24:24;;;;;;;13.48;9.82;;;18.80;99.90;;;;;;4137442;28;20117;-71
2021/07/10 05:26:25;;;;;;;15.85;9.77;;;18.80;99.90;;;;;;4133935;28;20117;-71
2021/07/10 05:28:25;;;;;;;15.35;9.90;;;18.80;99.90;;;;;;4134606;28;20038;-71
2021/07/10 05:30:26;;;;;;;14.77;10.20;;;18.80;99.90;;;;;;4138350;28;20062;-71
2021/07/10 05:32:26;;;;;;;15.30;9.90;;;18.80;99.90;;;;;;4127796;28;20610;-71
2021/07/10 05:34:27;;;;;;;13.55;9.60;;;18.80;99.90;;;;;;4144332;28;20042;-71
2021/07/10 05:36:28;;;;;;;13.90;9.57;;;18.80;99.90;;;;;;4120510;28;20022;-71
2021/07/10 05:38:28;;;;;;;15.05;9.60;;;18.80;99.90;;;;;;4134318;28;20424;-71
2021/07/10 05:40:29;;;;;;;13.02;9.23;;;18.80;99.90;;;;;;4135164;28;20041;-71
2021/07/10 05:42:30;;;;;;;17.92;11.40;;;18.80;99.90;;;;;;4143174;28;20061;-71
2021/07/10 05:44:31;;;;;;;13.57;9.55;;;18.80;99.90;;;;;;4136326;28;20065;-71
2021/07/10 05:46:32;;;;;;;12.63;9.30;;;18.80;99.90;;;;;;4130934;28;20037;-72
2021/07/10 05:48:33;;;;;;;13.05;9.15;;;18.80;99.90;;;;;;4135700;28;20038;-71
2021/07/10 05:50:34;;;;;;;15.18;9.55;;;18.80;99.90;;;;;;4143568;28;20066;-71
2021/07/10 05:52:35;;;;;;;14.43;9.93;;;18.80;99.90;;;;;;4135220;28;20704;-71
2021/07/10 05:54:35;;;;;;;14.18;9.23;;;18.90;99.90;;;;;;4140969;28;20069;-71
2021/07/10 05:56:36;;;;;;;13.65;8.93;;;18.80;99.90;;;;;;4137904;28;20509;-71
2021/07/10 05:58:37;;;;;;;13.07;9.32;;;18.80;99.90;;;;;;4139871;28;20034;-71
2021/07/10 06:00:37;;;;;;;14.80;9.18;;;18.80;99.90;;;;;;4146797;28;21189;-71
2021/07/10 06:02:38;;;;;;;12.25;8.68;;;18.80;99.90;;;;;;4134812;28;20092;-71
2021/07/10 06:04:39;;;;;;;15.30;10.00;;;18.90;99.90;;;;;;4134302;28;20042;-71
2021/07/10 06:06:39;;;;;;;13.48;9.43;;;18.90;99.90;;;;;;4130100;28;20038;-71
2021/07/10 06:08:40;;;;;;;13.38;9.80;;;18.90;99.90;;;;;;4143021;28;20104;-71
2021/07/10 06:10:41;;;;;;;13.25;9.40;;;19.00;99.90;;;;;;4146991;28;20482;-72
2021/07/10 06:12:42;;;;;;;13.13;9.48;;;19.00;99.90;;;;;;4139712;28;20026;-71
2021/07/10 06:14:42;;;;;;;13.98;9.43;;;19.00;99.90;;;;;;4134540;28;20390;-71
2021/07/10 06:16:43;;;;;;;13.68;9.45;;;19.00;99.90;;;;;;4135119;28;20050;-71
2021/07/10 06:18:44;;;;;;;14.25;9.45;;;19.00;99.90;;;;;;4138513;28;20498;-71
2021/07/10 06:20:44;;;;;;;13.85;9.38;;;19.10;99.90;;;;;;4137570;28;20117;-72
2021/07/10 06:22:47;;;;;;;12.00;8.80;;;19.10;99.90;;;;;;4131913;28;20427;-71
2021/07/10 06:24:48;;;;;;;19.70;10.70;;;19.10;99.90;;;;;;4130479;28;20030;-71
2021/07/10 06:26:48;;;;;;;11.63;8.98;;;19.20;99.90;;;;;;4129953;28;20499;-71
2021/07/10 06:28:50;;;;;;;13.20;9.05;;;19.20;99.90;;;;;;4140847;28;20046;-71
2021/07/10 06:30:50;;;;;;;16.23;9.77;;;19.30;99.90;;;;;;4137274;28;20069;-71
2021/07/10 06:32:51;;;;;;;12.90;9.38;;;19.30;99.90;;;;;;4133851;28;20042;-71
2021/07/10 06:34:52;;;;;;;14.27;9.50;;;19.30;99.90;;;;;;4133308;28;20475;-71
2021/07/10 06:36:52;;;;;;;11.77;8.70;;;19.40;99.90;;;;;;4131464;28;20124;-71
2021/07/10 06:38:54;;;;;;;15.35;10.60;;;19.40;99.90;;;;;;4128239;28;20037;-71
2021/07/10 06:40:54;;;;;;;12.77;8.95;;;19.40;99.90;;;;;;4135696;28;20486;-71
2021/07/10 06:42:55;;;;;;;12.38;8.75;;;19.50;99.90;;;;;;4133878;28;20033;-71
2021/07/10 06:44:55;;;;;;;13.48;8.85;;;19.60;99.90;;;;;;4129455;28;20027;-71
2021/07/10 06:46:56;;;;;;;13.77;9.90;;;19.70;99.90;;;;;;4131875;28;20050;-71
2021/07/10 06:48:56;;;;;;;16.50;10.77;;;19.80;99.90;;;;;;4136369;28;20037;-71
2021/07/10 06:50:57;;;;;;;12.43;8.80;;;19.90;99.90;;;;;;4129339;28;20517;-71
2021/07/10 06:52:58;;;;;;;12.07;8.65;;;19.90;99.90;;;;;;4140192;28;20030;-71
2021/07/10 06:54:58;;;;;;;13.10;9.80;;;20.00;99.90;;;;;;4134343;28;20106;-71
2021/07/10 06:56:59;;;;;;;12.38;8.77;;;20.10;99.90;;;;;;4135013;28;20038;-73
2021/07/10 06:59:00;;;;;;;14.55;8.52;;;20.20;99.90;;;;;;4136336;28;20031;-74
2021/07/10 07:01:01;;;;;;;12.57;9.05;;;20.20;99.90;;;;;;4133114;28;20322;-74
2021/07/10 07:03:01;;;;;;;14.05;7.93;;;20.30;99.90;;;;;;4133541;28;20065;-74
2021/07/10 07:05:03;;;;;;;11.40;8.98;;;20.30;99.90;;;;;;4130748;28;20128;-75
2021/07/10 07:07:05;;;;;;;12.85;8.38;;;20.40;99.90;;;;;;4138315;28;20126;-75
2021/07/10 07:09:06;;;;;;;13.43;9.35;;;20.40;99.90;;;;;;4134323;28;20051;-75
2021/07/10 07:11:06;;;;;;;11.52;8.40;;;20.50;99.90;;;;;;4128296;28;20034;-75
2021/07/10 07:13:07;;;;;;;11.82;8.50;;;20.50;99.90;;;;;;4133741;28;20038;-75
2021/07/10 07:15:09;;;;;;;12.38;9.15;;;20.50;99.90;;;;;;4139147;28;20417;-75
2021/07/10 07:17:10;;;;;;;11.85;8.55;;;20.50;99.90;;;;;;4117995;28;20046;-75
2021/07/10 07:19:11;;;;;;;13.02;8.50;;;20.60;99.90;;;;;;4131218;28;20049;-75
2021/07/10 07:21:11;;;;;;;12.73;9.60;;;20.60;99.90;;;;;;4134667;28;20054;-75
2021/07/10 07:23:12;;;;;;;13.65;9.02;;;20.70;99.90;;;;;;4134840;28;20478;-75
2021/07/10 07:25:14;;;;;;;9.77;7.68;;;20.60;99.90;;;;;;4132098;28;20049;-75
2021/07/10 07:27:15;;;;;;;10.68;8.07;;;20.70;99.90;;;;;;4134908;28;20066;-75
2021/07/10 07:29:16;;;;;;;13.48;8.07;;;20.70;99.90;;;;;;4131609;28;20088;-75
2021/07/10 07:31:16;;;;;;;13.55;8.30;;;20.80;99.90;;;;;;4141227;28;20034;-75
2021/07/10 07:33:17;;;;;;;11.50;8.48;;;20.90;99.90;;;;;;4132476;28;20466;-75
2021/07/10 07:35:18;;;;;;;17.60;9.15;;;20.90;99.90;;;;;;4133643;28;20037;-75
2021/07/10 07:37:19;;;;;;;12.85;9.00;;;20.90;99.90;;;;;;4140347;28;20114;-75
2021/07/10 07:39:20;;;;;;;10.02;7.63;;;20.90;99.90;;;;;;4129827;28;20037;-75
2021/07/10 07:41:20;;;;;;;12.55;8.65;;;21.00;99.90;;;;;;4132260;28;20058;-75
2021/07/10 07:43:21;;;;;;;13.80;9.48;;;21.00;99.90;;;;;;4132283;28;20029;-75
2021/07/10 07:45:22;;;;;;;10.13;7.38;;;21.00;99.90;;;;;;4126887;28;20034;-75
2021/07/10 07:47:23;;;;;;;12.45;8.02;;;21.10;99.90;;;;;;4132692;28;20133;-74
2021/07/10 07:49:23;;;;;;;11.25;7.30;;;21.10;99.90;;;;;;4129279;28;20038;-75
2021/07/10 07:51:24;;;;;;;9.90;7.10;;;21.10;99.90;;;;;;4128285;28;20033;-75
2021/07/10 07:53:24;;;;;;;13.85;8.35;;;21.20;99.90;;;;;;4125765;28;20138;-75
2021/07/10 07:55:25;;;;;;;10.60;7.97;;;21.20;99.90;;;;;;4120090;28;20054;-75
2021/07/10 07:57:26;;;;;;;13.23;9.60;;;21.30;99.90;;;;;;4139224;28;20508;-75
2021/07/10 07:59:26;;;;;;;13.07;9.98;;;21.30;99.90;;;;;;4131647;28;20564;-75
2021/07/10 08:01:27;;;;;;;10.07;8.02;;;21.30;99.90;;;;;;4133982;28;20026;-74
2021/07/10 08:03:27;;;;;;;14.20;9.15;;;21.30;99.90;;;;;;4134741;28;20049;-75
2021/07/10 08:05:28;;;;;;;11.73;8.32;;;21.30;99.90;;;;;;4138589;28;20046;-75
2021/07/10 08:07:29;;;;;;;11.73;7.93;;;21.40;99.90;;;;;;4136217;28;20573;-75
2021/07/10 08:09:30;;;;;;;11.30;7.43;;;21.40;99.90;;;;;;4135251;28;20027;-75
2021/07/10 08:11:30;;;;;;;9.15;6.78;;;21.50;99.90;;;;;;4134222;28;20122;-73
2021/07/10 08:13:33;;;;;;;13.27;8.52;;;21.50;99.90;;;;;;4118813;28;20030;-73
2021/07/10 08:15:33;;;;;;;14.02;8.57;;;21.50;99.90;;;;;;4137476;28;20056;-73
2021/07/10 08:17:34;;;;;;;10.85;7.20;;;21.50;99.90;;;;;;4135856;28;20496;-73
2021/07/10 08:19:35;;;;;;;10.60;7.20;;;21.60;99.90;;;;;;4146180;28;20042;-73
2021/07/10 08:21:36;;;;;;;10.60;7.60;;;21.60;99.90;;;;;;4131586;28;20037;-73
2021/07/10 08:23:36;;;;;;;11.32;7.57;;;21.60;99.90;;;;;;4128277;28;20092;-73
2021/07/10 08:25:37;;;;;;;9.45;7.55;;;21.60;99.90;;;;;;4142053;28;20155;-73
2021/07/10 08:27:38;;;;;;;9.73;6.70;;;21.70;99.90;;;;;;4131010;28;20436;-73
2021/07/10 08:29:40;;;;;;;10.68;7.07;;;21.70;99.90;;;;;;4130677;28;20115;-73
2021/07/10 08:31:41;;;;;;;10.23;7.50;;;21.80;99.90;;;;;;4132086;28;20037;-74
2021/07/10 08:33:42;;;;;;;10.43;6.80;;;21.80;99.90;;;;;;4138110;28;20716;-73
2021/07/10 08:35:42;;;;;;;9.25;6.97;;;21.80;99.90;;;;;;4136186;28;20072;-73
2021/07/10 08:37:44;;;;;;;10.18;7.38;;;21.90;99.90;;;;;;4142640;28;20087;-73
2021/07/10 08:39:44;;;;;;;11.27;7.70;;;21.90;99.90;;;;;;4136455;28;20120;-73
2021/07/10 08:41:48;;;;;;;9.18;6.78;;;22.00;99.90;;;;;;4133071;28;20115;-73
2021/07/10 08:43:48;;;;;;;11.95;8.25;;;22.00;99.90;;;;;;4130924;28;20490;-73
2021/07/10 08:45:50;;;;;;;12.48;8.13;;;22.10;99.90;;;;;;4141824;28;20044;-73
2021/07/10 08:47:50;;;;;;;12.27;8.25;;;22.10;99.90;;;;;;4128232;28;20042;-73
2021/07/10 08:49:51;;;;;;;10.63;6.75;;;22.20;99.90;;;;;;4137876;28;20475;-73
2021/07/10 08:51:53;;;;;;;8.82;6.40;;;22.20;99.90;;;;;;4136740;28;20030;-74
2021/07/10 08:53:53;;;;;;;8.35;6.20;;;22.30;99.90;;;;;;4132864;28;20034;-74
2021/07/10 08:55:54;;;;;;;8.18;6.10;;;22.40;99.90;;;;;;4133883;28;20054;-74
2021/07/10 08:57:56;;;;;;;10.70;7.03;;;22.40;99.90;;;;;;4131388;28;20046;-74
2021/07/10 08:59:56;;;;;;;7.57;5.83;;;22.50;99.90;;;;;;4128896;28;20023;-74
2021/07/10 09:01:57;;;;;;;11.45;7.25;;;22.50;99.90;;;;;;4135283;28;20303;-74
2021/07/10 09:03:58;;;;;;;11.80;7.13;;;22.60;99.90;;;;;;4140030;28;20042;-74
2021/07/10 09:05:58;;;;;;;9.88;5.88;;;22.60;99.90;;;;;;4136747;28;20027;-74
2021/07/10 09:08:16;;;;;;;7.47;5.30;;;22.60;99.90;;;;;;4133457;28;20033;-74
2021/07/10 09:10:35;;;;;;;7.78;5.93;;;22.60;99.90;;;;;;4136967;28;20037;-74
2021/07/10 09:12:35;;;;;;;10.70;6.43;;;22.70;99.90;;;;;;4134433;28;20066;-74
2021/07/10 09:14:36;;;;;;;8.57;6.13;;;22.70;99.90;;;;;;4135098;28;20057;-74
2021/07/10 09:16:37;;;;;;;9.82;6.45;;;22.70;99.90;;;;;;4131607;28;20429;-74
2021/07/10 09:19:02;;;;;;;9.32;6.45;;;22.70;99.90;;;;;;4132870;28;20502;-74
2021/07/10 09:21:03;;;;;;;5.75;4.78;;;22.80;99.90;;;;;;4129526;28;20031;-74
2021/07/10 09:23:29;;;;;;;9.95;7.40;;;22.80;99.90;;;;;;4130435;28;20042;-74
2021/07/10 09:25:32;;;;;;;11.05;7.53;;;22.80;99.90;;;;;;4130141;28;20502;-74
2021/07/10 09:27:48;;;;;;;9.50;5.90;;;22.90;99.90;;;;;;4135343;28;20030;-75
2021/07/10 09:29:52;;;;;;;7.95;5.30;;;23.00;99.90;;;;;;4135487;28;20133;-74
2021/07/10 09:31:58;;;;;;;10.20;6.82;;;23.00;99.90;;;;;;4131239;28;20109;-74
2021/07/10 09:34:03;;;;;;;7.57;5.53;;;23.00;99.90;;;;;;4144207;28;20029;-74
2021/07/10 09:36:04;;;;;;;6.63;4.68;;;23.10;99.90;;;;;;4136532;28;20046;-74
2021/07/10 09:38:19;;;;;;;5.50;4.10;;;23.10;99.90;;;;;;4134292;28;20030;-74
2021/07/10 09:40:20;;;;;;;8.88;6.15;;;23.20;99.90;;;;;;4130843;28;20469;-74
2021/07/10 09:42:29;;;;;;;8.82;5.47;;;23.10;99.90;;;;;;4138859;28;20034;-74
2021/07/10 09:44:53;;;;;;;9.55;5.65;;;23.20;99.90;;;;;;4129905;28;20091;-74
2021/07/10 09:46:53;;;;;;;8.07;5.75;;;23.20;99.90;;;;;;4132088;28;20033;-74
2021/07/10 09:48:55;;;;;;;6.28;5.20;;;23.20;99.90;;;;;;4134321;28;20085;-74
2021/07/10 09:51:18;;;;;;;6.82;5.55;;;23.20;99.90;;;;;;4130934;28;20105;-74
2021/07/10 09:53:23;;;;;;;9.55;5.60;;;23.30;99.90;;;;;;4132583;28;20069;-74
2021/07/10 09:55:28;;;;;;;8.73;5.72;;;23.30;99.90;;;;;;4136667;28;20727;-74
2021/07/10 09:57:32;;;;;;;6.60;4.60;;;23.30;99.90;;;;;;4138434;28;20033;-74
2021/07/10 09:59:38;;;;;;;8.48;4.63;;;23.30;99.90;;;;;;4136868;28;20501;-74
2021/07/10 10:01:38;;;;;;;7.03;4.82;;;23.40;99.90;;;;;;4140090;28;20081;-74
2021/07/10 10:03:39;;;;;;;9.20;5.20;;;23.40;99.90;;;;;;4131294;28;20045;-74
2021/07/10 10:05:41;;;;;;;7.22;4.80;;;23.30;99.90;;;;;;4140290;28;20102;-74
2021/07/10 10:07:47;;;;;;;8.05;5.30;;;23.40;99.90;;;;;;4136933;28;20038;-74
2021/07/10 10:09:58;;;;;;;7.88;5.35;;;23.40;99.90;;;;;;4137194;28;20543;-74
2021/07/10 10:12:03;;;;;;;6.63;4.57;;;23.40;99.90;;;;;;4133063;28;20037;-74
2021/07/10 10:14:08;;;;;;;7.22;4.75;;;23.40;99.90;;;;;;4138869;28;20034;-74
2021/07/10 10:16:16;;;;;;;7.97;4.97;;;23.40;99.90;;;;;;4133604;28;20050;-73
2021/07/10 10:18:24;;;;;;;9.88;4.50;;;23.50;99.90;;;;;;4139420;28;20034;-74
2021/07/10 10:20:25;;;;;;;7.65;4.85;;;23.50;99.90;;;;;;4128966;28;20477;-74
2021/07/10 10:22:26;;;;;;;8.30;5.82;;;23.50;99.90;;;;;;4139651;28;20424;-74
2021/07/10 10:24:28;;;;;;;9.88;6.22;;;23.40;99.90;;;;;;4136318;28;20418;-74
2021/07/10 10:26:29;;;;;;;11.20;6.40;;;23.40;99.90;;;;;;4125304;28;20065;-74
2021/07/10 10:28:33;;;;;;;10.43;6.60;;;23.40;99.90;;;;;;4137636;28;20117;-74